Time;durP1;ratioP1;P1;durP2;ratioP2;P2;SDS_P1;SDS_P2;PMS_P1;PMS_P2;Temp;Humidity;BMP_temperature;BMP_pressure;BME280_temperature;BME280_humidity;BME280_pressure;Samples;Min_cycle;Max_cycle;Signal;HPM_P1;HPM_P2
2024/02/22 00:01:55;;;;;;;37.97;22.83;;;-3.30;99.90;;;;;;5071316;28;20515;-79
2024/02/22 00:04:21;;;;;;;40.05;20.85;;;-3.20;99.90;;;;;;5071001;28;20098;-81
2024/02/22 00:06:50;;;;;;;41.45;24.83;;;-3.20;99.90;;;;;;5071352;28;20031;-80
2024/02/22 00:09:16;;;;;;;34.40;17.58;;;-3.20;99.90;;;;;;5072289;28;20420;-81
2024/02/22 00:11:42;;;;;;;41.95;20.98;;;-3.20;99.90;;;;;;5072937;28;20028;-80
2024/02/22 00:14:08;;;;;;;34.03;20.13;;;-3.30;99.90;;;;;;5069599;28;20095;-78
2024/02/22 00:16:37;;;;;;;40.70;21.65;;;-3.30;99.90;;;;;;5072018;28;20384;-79
2024/02/22 00:19:02;;;;;;;35.40;21.50;;;-3.20;99.90;;;;;;5072033;28;20504;-79
2024/02/22 00:21:28;;;;;;;41.45;23.13;;;-3.20;99.90;;;;;;5069692;28;20020;-78
2024/02/22 00:23:54;;;;;;;43.97;23.25;;;-3.20;99.90;;;;;;5072014;28;20021;-78
2024/02/22 00:26:21;;;;;;;36.15;23.25;;;-3.20;99.90;;;;;;5071908;28;20478;-79
2024/02/22 00:28:47;;;;;;;30.43;17.03;;;-3.20;99.90;;;;;;5069698;28;20466;-79
2024/02/22 00:31:13;;;;;;;36.38;22.50;;;-3.20;99.90;;;;;;5053504;28;20296;-78
2024/02/22 00:33:39;;;;;;;40.03;21.85;;;-3.20;99.90;;;;;;5071762;28;20013;-79
2024/02/22 00:36:05;;;;;;;40.20;22.30;;;-3.30;99.90;;;;;;5071641;28;20024;-79
2024/02/22 00:38:32;;;;;;;45.03;22.67;;;-3.30;99.90;;;;;;5071925;28;20019;-80
2024/02/22 00:40:58;;;;;;;31.35;15.68;;;-3.30;99.90;;;;;;5064049;28;20289;-78
2024/02/22 00:43:23;;;;;;;35.00;19.60;;;-3.30;99.90;;;;;;5072122;28;20443;-79
2024/02/22 00:45:49;;;;;;;37.38;22.63;;;-3.30;99.90;;;;;;5072455;28;20056;-78
2024/02/22 00:48:15;;;;;;;37.80;19.88;;;-3.30;99.90;;;;;;5073320;28;20016;-78
2024/02/22 00:50:41;;;;;;;39.03;22.73;;;-3.30;99.90;;;;;;5071298;28;20037;-77
2024/02/22 00:53:07;;;;;;;31.88;19.35;;;-3.30;99.90;;;;;;5074925;28;20025;-78
2024/02/22 00:55:33;;;;;;;41.40;23.38;;;-3.20;99.90;;;;;;5071750;28;20025;-79
2024/02/22 00:57:59;;;;;;;38.15;20.33;;;-3.20;99.90;;;;;;5071857;28;20021;-79
2024/02/22 01:00:25;;;;;;;46.05;25.42;;;-3.10;99.90;;;;;;5071705;28;20048;-79
2024/02/22 01:02:50;;;;;;;44.70;23.13;;;-3.20;99.90;;;;;;5071542;28;20486;-78
2024/02/22 01:05:17;;;;;;;39.40;21.40;;;-3.10;99.90;;;;;;5071589;28;20482;-79
2024/02/22 01:07:42;;;;;;;36.20;20.08;;;-3.20;99.90;;;;;;5068835;28;20378;-79
2024/02/22 01:10:08;;;;;;;37.08;22.00;;;-3.20;99.90;;;;;;5071672;28;20025;-79
2024/02/22 01:12:34;;;;;;;40.70;21.77;;;-3.20;99.90;;;;;;5071601;28;20034;-78
2024/02/22 01:15:00;;;;;;;38.92;20.92;;;-3.20;99.90;;;;;;5071591;28;20494;-78
2024/02/22 01:17:26;;;;;;;38.38;21.15;;;-3.30;99.90;;;;;;5053309;28;20457;-78
2024/02/22 01:19:52;;;;;;;42.42;22.55;;;-3.30;99.90;;;;;;5071452;28;20028;-78
2024/02/22 01:22:18;;;;;;;44.17;23.00;;;-3.20;99.90;;;;;;5050579;28;20039;-77
2024/02/22 01:24:44;;;;;;;45.45;22.75;;;-3.20;99.90;;;;;;5054773;28;20032;-79
2024/02/22 01:27:10;;;;;;;43.80;23.27;;;-3.20;99.90;;;;;;5050326;28;20028;-77
2024/02/22 01:29:36;;;;;;;39.72;21.45;;;-3.20;99.90;;;;;;5051662;28;20394;-78
2024/02/22 01:32:01;;;;;;;42.00;20.40;;;-3.20;99.90;;;;;;5071467;28;20045;-79
2024/02/22 01:34:27;;;;;;;36.90;19.98;;;-3.20;99.90;;;;;;5054238;28;20028;-78
2024/02/22 01:36:53;;;;;;;43.10;20.52;;;-3.10;99.90;;;;;;5078736;28;20444;-78
2024/02/22 01:39:19;;;;;;;40.08;23.85;;;-3.10;99.90;;;;;;5072360;28;20025;-78
2024/02/22 01:41:45;;;;;;;35.67;19.98;;;-3.10;99.90;;;;;;5075026;28;20024;-78
2024/02/22 01:44:11;;;;;;;46.42;24.33;;;-3.00;99.90;;;;;;5073187;28;20097;-80
2024/02/22 01:46:37;;;;;;;40.33;21.08;;;-3.00;99.90;;;;;;5072097;28;20060;-78
2024/02/22 01:49:05;;;;;;;35.05;21.50;;;-3.00;99.90;;;;;;5071329;28;20031;-78
2024/02/22 01:51:32;;;;;;;44.03;23.45;;;-3.00;99.90;;;;;;5071615;28;20040;-78
2024/02/22 01:53:59;;;;;;;40.13;20.52;;;-3.00;99.90;;;;;;5071269;28;20020;-78
2024/02/22 01:56:26;;;;;;;40.83;22.63;;;-3.10;99.90;;;;;;5068832;28;20475;-79
2024/02/22 01:58:52;;;;;;;48.72;22.77;;;-3.00;99.90;;;;;;5071027;28;20016;-77
2024/02/22 02:01:22;;;;;;;36.63;22.13;;;-3.00;99.90;;;;;;5053206;28;20033;-78
2024/02/22 02:03:52;;;;;;;45.08;22.08;;;-3.00;99.90;;;;;;5056174;28;20143;-77
2024/02/22 02:06:18;;;;;;;38.50;23.83;;;-3.00;99.90;;;;;;5040208;28;20028;-78
2024/02/22 02:08:44;;;;;;;29.83;16.48;;;-2.90;99.90;;;;;;5074761;28;20491;-77
2024/02/22 02:11:10;;;;;;;39.47;21.42;;;-3.00;99.90;;;;;;5054227;28;20036;-78
2024/02/22 02:13:36;;;;;;;36.80;19.85;;;-3.00;99.90;;;;;;5074493;28;20096;-78
2024/02/22 02:16:02;;;;;;;43.22;21.63;;;-3.10;99.90;;;;;;5074464;28;20473;-78
2024/02/22 02:18:28;;;;;;;36.22;17.33;;;-3.20;99.90;;;;;;5056536;28;20017;-78
2024/02/22 02:21:02;;;;;;;42.80;23.65;;;-3.20;99.90;;;;;;5075005;28;20051;-78
2024/02/22 02:23:41;;;;;;;37.58;20.98;;;-3.20;99.90;;;;;;5078410;28;20052;-78
2024/02/22 02:26:07;;;;;;;35.63;21.23;;;-3.10;99.90;;;;;;5074273;28;20016;-78
2024/02/22 02:28:33;;;;;;;43.55;23.10;;;-3.10;99.90;;;;;;5073793;28;20074;-77
2024/02/22 02:30:58;;;;;;;42.15;23.33;;;-3.10;99.90;;;;;;5071316;28;20090;-80
2024/02/22 02:33:24;;;;;;;42.33;20.90;;;-3.10;99.90;;;;;;5074835;28;20025;-79
2024/02/22 02:35:52;;;;;;;40.60;22.08;;;-3.10;99.90;;;;;;5056064;28;20489;-78
2024/02/22 02:38:18;;;;;;;41.35;26.08;;;-3.10;99.90;;;;;;5074789;28;20025;-79
2024/02/22 02:40:44;;;;;;;38.03;23.33;;;-3.10;99.90;;;;;;5074602;28;20397;-79
2024/02/22 02:43:09;;;;;;;37.42;22.15;;;-3.00;99.90;;;;;;5071623;28;20016;-78
2024/02/22 02:45:35;;;;;;;41.95;23.23;;;-3.00;99.90;;;;;;5039120;28;20051;-79
2024/02/22 02:48:01;;;;;;;41.10;20.75;;;-3.10;99.90;;;;;;5069955;28;20104;-79
2024/02/22 02:50:27;;;;;;;36.63;22.63;;;-3.10;99.90;;;;;;5072166;28;20076;-76
2024/02/22 02:52:53;;;;;;;39.97;21.77;;;-3.00;99.90;;;;;;5073778;28;20016;-79
2024/02/22 02:55:20;;;;;;;38.47;19.13;;;-3.10;99.90;;;;;;5073616;28;20108;-80
2024/02/22 02:57:46;;;;;;;47.20;25.27;;;-3.10;99.90;;;;;;5073888;28;20512;-78
2024/02/22 03:00:14;;;;;;;45.38;18.58;;;-3.10;99.90;;;;;;5072239;28;20107;-79
2024/02/22 03:02:40;;;;;;;44.90;23.65;;;-3.00;99.90;;;;;;5073298;28;20037;-78
2024/02/22 03:05:07;;;;;;;38.90;20.98;;;-3.10;99.90;;;;;;5065304;28;20029;-78
2024/02/22 03:07:34;;;;;;;29.35;16.73;;;-3.20;99.90;;;;;;5073158;28;20021;-79
2024/02/22 03:09:59;;;;;;;29.70;16.70;;;-3.30;99.90;;;;;;5073632;28;20085;-79
2024/02/22 03:12:25;;;;;;;42.28;21.40;;;-3.40;99.90;;;;;;5070784;28;20059;-78
2024/02/22 03:14:51;;;;;;;43.80;20.90;;;-3.40;99.90;;;;;;5072402;28;20037;-77
2024/02/22 03:17:18;;;;;;;37.55;22.25;;;-3.40;99.90;;;;;;5073179;28;20020;-78
2024/02/22 03:19:44;;;;;;;37.42;18.65;;;-3.40;99.90;;;;;;5055212;28;20115;-77
2024/02/22 03:22:10;;;;;;;47.42;23.67;;;-3.40;99.90;;;;;;5051444;28;20174;-76
2024/02/22 03:24:36;;;;;;;46.65;22.55;;;-3.50;99.90;;;;;;5075746;28;20428;-80
2024/02/22 03:27:03;;;;;;;38.83;21.13;;;-3.50;99.90;;;;;;5076676;28;20036;-76
2024/02/22 03:29:29;;;;;;;44.90;21.92;;;-3.50;99.90;;;;;;5056224;28;20044;-79
2024/02/22 03:31:55;;;;;;;47.28;24.17;;;-3.50;99.90;;;;;;5073649;28;20060;-76
2024/02/22 03:34:22;;;;;;;39.72;21.60;;;-3.40;99.90;;;;;;5072792;28;20401;-78
2024/02/22 03:36:48;;;;;;;39.33;24.27;;;-3.20;99.90;;;;;;5071852;28;20430;-78
2024/02/22 03:39:14;;;;;;;47.42;24.20;;;-3.20;99.90;;;;;;5072159;28;20020;-78
2024/02/22 03:41:40;;;;;;;35.60;20.27;;;-3.20;99.90;;;;;;5072817;28;20107;-79
2024/02/22 03:44:10;;;;;;;37.80;19.80;;;-3.20;99.90;;;;;;5073291;28;20036;-80
2024/02/22 03:46:37;;;;;;;28.85;13.32;;;-3.30;99.90;;;;;;5072857;28;20017;-77
2024/02/22 03:49:02;;;;;;;52.05;24.35;;;-3.30;99.90;;;;;;5072955;28;20029;-79
2024/02/22 03:51:28;;;;;;;43.05;21.38;;;-3.40;99.90;;;;;;5056137;28;20043;-79
2024/02/22 03:53:54;;;;;;;33.67;15.30;;;-3.40;99.90;;;;;;5048583;28;20029;-78
2024/02/22 03:56:20;;;;;;;45.55;23.85;;;-3.40;99.90;;;;;;5071903;28;20043;-79
2024/02/22 03:58:46;;;;;;;47.40;23.52;;;-3.40;99.90;;;;;;5072530;28;20029;-80
2024/02/22 04:01:13;;;;;;;46.22;23.92;;;-3.30;99.90;;;;;;5072660;28;20021;-77
2024/02/22 04:04:11;;;;;;;45.25;22.45;;;-3.30;99.90;;;;;;5071571;28;20382;-80
2024/02/22 04:06:37;;;;;;;32.72;18.35;;;-3.40;99.90;;;;;;5068869;28;20593;-79
2024/02/22 04:09:03;;;;;;;54.33;25.17;;;-3.40;99.90;;;;;;5070796;28;20117;-80
2024/02/22 04:11:29;;;;;;;44.05;22.00;;;-3.40;99.90;;;;;;5073587;28;20033;-79
2024/02/22 04:13:56;;;;;;;47.97;24.70;;;-3.30;99.90;;;;;;5076371;28;20090;-80
2024/02/22 04:16:22;;;;;;;39.65;23.40;;;-3.30;99.90;;;;;;5054853;28;20032;-78
2024/02/22 04:18:48;;;;;;;43.53;22.00;;;-3.30;99.90;;;;;;5073338;28;20386;-77
2024/02/22 04:21:14;;;;;;;43.70;25.30;;;-3.20;99.90;;;;;;5073652;28;20020;-79
2024/02/22 04:23:41;;;;;;;44.58;23.83;;;-3.20;99.90;;;;;;5072752;28;20012;-79
2024/02/22 04:26:07;;;;;;;52.10;27.52;;;-3.00;99.90;;;;;;5072112;28;20024;-76
2024/02/22 04:28:37;;;;;;;54.13;25.17;;;-3.10;99.90;;;;;;5054091;28;20078;-78
2024/02/22 04:31:04;;;;;;;42.95;23.23;;;-3.00;99.90;;;;;;5067799;28;20028;-76
2024/02/22 04:33:30;;;;;;;54.08;24.67;;;-3.00;99.90;;;;;;5072134;28;20069;-78
2024/02/22 04:35:56;;;;;;;43.70;22.63;;;-3.00;99.90;;;;;;5063593;28;20032;-79
2024/02/22 04:38:22;;;;;;;54.63;25.63;;;-3.00;99.90;;;;;;5072091;28;20747;-78
2024/02/22 04:40:48;;;;;;;46.40;25.23;;;-3.00;99.90;;;;;;5072003;28;20052;-77
2024/02/22 04:43:14;;;;;;;36.65;20.20;;;-3.00;99.90;;;;;;5054010;28;20016;-78
2024/02/22 04:45:40;;;;;;;50.63;24.13;;;-2.90;99.90;;;;;;5072192;28;20096;-76
2024/02/22 04:48:06;;;;;;;49.17;25.63;;;-2.90;99.90;;;;;;5070852;28;20045;-78
2024/02/22 04:50:33;;;;;;;46.67;24.42;;;-2.90;99.90;;;;;;5072414;28;20143;-77
2024/02/22 04:53:00;;;;;;;52.17;27.48;;;-2.80;99.90;;;;;;5072110;28;20059;-76
2024/02/22 04:55:26;;;;;;;53.42;28.35;;;-2.80;99.90;;;;;;5070387;28;20020;-77
2024/02/22 04:57:54;;;;;;;36.95;22.95;;;-2.70;99.90;;;;;;5071695;28;20112;-78
2024/02/22 05:00:21;;;;;;;48.05;27.45;;;-2.70;99.90;;;;;;5071594;28;20027;-78
2024/02/22 05:02:47;;;;;;;;;;;-2.70;99.90;;;;;;5072070;28;20051;-79
2024/02/22 05:05:13;;;;;;;48.45;23.83;;;-2.60;99.90;;;;;;5071156;28;20373;-79
2024/02/22 05:07:40;;;;;;;47.85;25.20;;;-2.60;99.90;;;;;;5072040;28;20021;-78
2024/02/22 05:10:06;;;;;;;59.17;26.17;;;-2.70;99.90;;;;;;5073772;28;20025;-79
2024/02/22 05:12:33;;;;;;;44.35;21.95;;;-2.80;99.90;;;;;;5073947;28;20064;-78
2024/02/22 05:14:59;;;;;;;49.28;24.17;;;-2.90;99.90;;;;;;5071140;28;20085;-79
2024/02/22 05:17:25;;;;;;;39.90;21.05;;;-2.80;99.90;;;;;;5071716;28;20025;-78
2024/02/22 05:19:51;;;;;;;45.80;24.08;;;-2.80;99.90;;;;;;5071589;28;20020;-79
2024/02/22 05:22:17;;;;;;;50.85;24.33;;;-2.80;99.90;;;;;;5071395;28;20110;-79
2024/02/22 05:24:43;;;;;;;52.25;27.98;;;-2.80;99.90;;;;;;5059162;28;20099;-78
2024/02/22 05:27:10;;;;;;;48.45;26.17;;;-2.80;99.90;;;;;;5072492;28;20131;-79
2024/02/22 05:29:36;;;;;;;42.72;22.45;;;-2.80;99.90;;;;;;5071761;28;20047;-81
2024/02/22 05:32:02;;;;;;;42.33;24.70;;;-2.80;99.90;;;;;;5071771;28;20044;-79
2024/02/22 05:34:28;;;;;;;56.05;27.38;;;-2.80;99.90;;;;;;5071688;28;20440;-79
2024/02/22 05:36:54;;;;;;;44.42;24.95;;;-2.80;99.90;;;;;;5071681;28;20029;-78
2024/02/22 05:39:21;;;;;;;54.63;28.30;;;-2.80;99.90;;;;;;5074064;28;20409;-79
2024/02/22 05:41:47;;;;;;;54.90;27.00;;;-2.80;99.90;;;;;;5056421;28;20060;-78
2024/02/22 05:44:14;;;;;;;47.42;24.08;;;-2.80;99.90;;;;;;5075063;28;20074;-79
2024/02/22 05:46:40;;;;;;;51.70;26.60;;;-2.80;99.90;;;;;;5073614;28;20108;-79
2024/02/22 05:49:06;;;;;;;49.70;27.13;;;-2.80;99.90;;;;;;5074892;28;20293;-78
2024/02/22 05:51:32;;;;;;;52.55;27.80;;;-2.70;99.90;;;;;;5070739;28;20040;-79
2024/02/22 05:53:58;;;;;;;42.15;24.17;;;-2.60;99.90;;;;;;5075929;28;20047;-78
2024/02/22 05:56:24;;;;;;;52.75;27.25;;;-2.60;99.90;;;;;;5077953;28;20029;-80
2024/02/22 05:58:49;;;;;;;50.03;23.42;;;-2.70;99.90;;;;;;5076052;28;20386;-77
2024/02/22 06:01:16;;;;;;;52.50;26.88;;;-2.60;99.90;;;;;;5074711;28;20036;-78
2024/02/22 06:03:43;;;;;;;49.78;22.52;;;-2.60;99.90;;;;;;5074415;28;20041;-77
2024/02/22 06:06:35;;;;;;;47.13;23.00;;;-2.60;99.90;;;;;;5074417;28;20036;-80
2024/02/22 06:09:00;;;;;;;54.38;24.58;;;-2.70;99.90;;;;;;5033941;28;20052;-77
2024/02/22 06:11:26;;;;;;;44.05;23.05;;;-2.80;99.90;;;;;;5032437;28;20046;-78
2024/02/22 06:13:53;;;;;;;53.88;25.60;;;-2.70;99.90;;;;;;5030862;28;20553;-78
2024/02/22 06:16:18;;;;;;;46.20;23.02;;;-2.70;99.90;;;;;;5032425;28;20033;-78
2024/02/22 06:18:44;;;;;;;47.90;23.45;;;-2.70;99.90;;;;;;5032307;28;20083;-78
2024/02/22 06:21:10;;;;;;;50.20;28.83;;;-2.70;99.90;;;;;;5032001;28;20247;-78
2024/02/22 06:23:36;;;;;;;52.90;25.90;;;-2.60;99.90;;;;;;5032551;28;20148;-79
2024/02/22 06:26:03;;;;;;;44.55;24.20;;;-2.60;99.90;;;;;;5032069;28;20037;-79
2024/02/22 06:28:30;;;;;;;51.30;26.63;;;-2.50;99.90;;;;;;5032028;28;20498;-79
2024/02/22 06:30:55;;;;;;;43.03;25.63;;;-2.40;99.90;;;;;;5034097;28;20045;-78
2024/02/22 06:33:22;;;;;;;52.15;25.77;;;-2.30;99.90;;;;;;5032029;28;20040;-78
2024/02/22 06:35:48;;;;;;;54.25;30.48;;;-2.20;99.90;;;;;;5031711;28;20115;-78
2024/02/22 06:38:14;;;;;;;50.80;27.08;;;-2.40;99.90;;;;;;5032544;28;20433;-78
2024/02/22 06:40:48;;;;;;;48.65;24.52;;;-2.40;99.90;;;;;;5032547;28;20025;-79
2024/02/22 06:43:15;;;;;;;51.63;24.33;;;-2.30;99.90;;;;;;5032016;28;20518;-79
2024/02/22 06:45:41;;;;;;;42.80;23.27;;;-2.40;99.90;;;;;;5037987;28;20032;-79
2024/02/22 06:48:08;;;;;;;44.50;24.92;;;-2.40;99.90;;;;;;5073417;28;20482;-78
2024/02/22 06:50:34;;;;;;;59.75;26.85;;;-2.40;99.90;;;;;;5055737;28;20029;-79
2024/02/22 06:53:00;;;;;;;48.58;20.50;;;-2.30;99.90;;;;;;5078573;28;20044;-79
2024/02/22 06:55:27;;;;;;;49.53;24.23;;;-2.20;99.90;;;;;;5082051;28;20027;-80
2024/02/22 06:57:54;;;;;;;46.25;26.60;;;-2.30;99.90;;;;;;5075988;28;20028;-79
2024/02/22 07:00:20;;;;;;;51.00;23.88;;;-2.40;99.90;;;;;;5056267;28;20115;-79
2024/02/22 07:02:45;;;;;;;49.85;26.15;;;-2.50;99.90;;;;;;5073937;28;20114;-78
2024/02/22 07:05:14;;;;;;;46.50;24.58;;;-2.40;99.90;;;;;;5055931;28;20025;-79
2024/02/22 07:07:40;;;;;;;49.72;25.05;;;-2.30;99.90;;;;;;5073824;28;20048;-81
2024/02/22 07:10:07;;;;;;;51.90;26.45;;;-2.20;99.90;;;;;;5055488;28;20482;-80
2024/02/22 07:12:33;;;;;;;47.30;24.27;;;-2.20;99.90;;;;;;5073502;28;20044;-80
2024/02/22 07:14:59;;;;;;;52.70;27.45;;;-2.20;99.90;;;;;;5073530;28;20100;-79
2024/02/22 07:17:25;;;;;;;54.85;26.42;;;-2.10;99.90;;;;;;5073407;28;20096;-79
2024/02/22 07:19:51;;;;;;;43.45;24.77;;;-2.00;99.90;;;;;;5055325;28;20114;-79
2024/02/22 07:22:17;;;;;;;49.70;27.10;;;-2.00;99.90;;;;;;5072668;28;20021;-79
2024/02/22 07:24:43;;;;;;;46.92;25.50;;;-2.00;99.90;;;;;;5073500;28;20040;-79
2024/02/22 07:27:09;;;;;;;45.90;25.42;;;-2.00;99.90;;;;;;5073139;28;20063;-79
2024/02/22 07:29:35;;;;;;;52.15;27.65;;;-2.10;99.90;;;;;;5073425;28;20033;-80
2024/02/22 07:32:03;;;;;;;43.05;23.92;;;-2.00;99.90;;;;;;5073831;28;20036;-80
2024/02/22 07:34:28;;;;;;;;;;;-2.00;99.90;;;;;;5055854;28;20502;-80
2024/02/22 07:36:54;;;;;;;48.10;25.30;;;-2.00;99.90;;;;;;5073587;28;19911;-80
2024/02/22 07:39:20;;;;;;;40.08;23.85;;;-1.90;99.90;;;;;;5074102;28;20421;-78
2024/02/22 07:41:46;;;;;;;49.83;23.33;;;-1.90;99.90;;;;;;5073581;28;20071;-80
2024/02/22 07:44:12;;;;;;;50.95;24.52;;;-1.90;99.90;;;;;;5074231;28;20098;-78
2024/02/22 07:46:39;;;;;;;43.42;24.27;;;-2.00;99.90;;;;;;5071462;28;20036;-79
2024/02/22 07:49:05;;;;;;;48.13;26.98;;;-2.10;99.90;;;;;;5073115;28;20108;-80
2024/02/22 07:51:31;;;;;;;55.33;26.00;;;-2.00;99.90;;;;;;5072959;28;20123;-79
2024/02/22 07:53:57;;;;;;;58.97;29.02;;;-1.90;99.90;;;;;;5072572;28;20021;-77
2024/02/22 07:56:23;;;;;;;39.47;20.38;;;-1.90;99.90;;;;;;5072553;28;20033;-79
2024/02/22 07:58:51;;;;;;;43.08;21.88;;;-1.80;99.90;;;;;;5072429;28;20023;-79
2024/02/22 08:01:17;;;;;;;41.13;21.27;;;-1.90;99.90;;;;;;5072137;28;20324;-79
2024/02/22 08:03:44;;;;;;;47.70;25.27;;;-2.00;99.90;;;;;;5072114;28;20048;-79
2024/02/22 08:06:11;;;;;;;55.13;26.02;;;-2.00;99.90;;;;;;5072205;28;20028;-78
2024/02/22 08:08:38;;;;;;;45.08;24.63;;;-1.90;99.90;;;;;;5072590;28;20017;-80
2024/02/22 08:11:08;;;;;;;59.00;30.20;;;-1.90;99.90;;;;;;5072092;28;20064;-80
2024/02/22 08:13:35;;;;;;;54.53;30.58;;;-1.90;99.90;;;;;;5072346;28;20477;-78
2024/02/22 08:16:03;;;;;;;51.97;27.17;;;-1.70;99.90;;;;;;5072553;28;20056;-79
2024/02/22 08:18:29;;;;;;;51.95;27.58;;;-1.50;99.90;;;;;;5072799;28;20017;-79
2024/02/22 08:20:55;;;;;;;54.65;26.73;;;-1.30;99.90;;;;;;5048767;28;20394;-80
2024/02/22 08:23:21;;;;;;;42.72;26.27;;;-1.20;99.90;;;;;;5055076;28;20028;-79
2024/02/22 08:25:47;;;;;;;47.55;24.30;;;-1.30;99.90;;;;;;5072148;28;20016;-78
2024/02/22 08:28:13;;;;;;;43.28;25.40;;;-1.30;99.90;;;;;;5072479;28;20111;-81
2024/02/22 08:30:40;;;;;;;43.55;23.88;;;-1.40;99.90;;;;;;5071850;28;20032;-79
2024/02/22 08:33:06;;;;;;;46.33;26.50;;;-1.40;99.90;;;;;;5071840;28;20407;-79
2024/02/22 08:35:32;;;;;;;48.65;25.27;;;-1.60;99.90;;;;;;5072079;28;20078;-79
2024/02/22 08:37:58;;;;;;;54.72;28.63;;;-1.60;99.90;;;;;;5054269;28;20025;-80
2024/02/22 08:40:24;;;;;;;47.55;25.45;;;-1.50;99.90;;;;;;5079235;28;20020;-79
2024/02/22 08:42:51;;;;;;;57.92;28.98;;;-1.40;99.90;;;;;;5055821;28;20024;-79
2024/02/22 08:45:18;;;;;;;51.72;25.88;;;-1.30;99.90;;;;;;5072040;28;20501;-79
2024/02/22 08:47:44;;;;;;;49.67;27.88;;;-1.30;99.90;;;;;;5071834;28;20103;-79
2024/02/22 08:50:12;;;;;;;50.08;28.05;;;-1.40;99.90;;;;;;5071761;28;20082;-80
2024/02/22 08:52:41;;;;;;;56.70;28.35;;;-1.30;99.90;;;;;;5053963;28;20373;-79
2024/02/22 08:55:09;;;;;;;49.58;26.15;;;-1.20;99.90;;;;;;5071764;28;20020;-78
2024/02/22 08:57:35;;;;;;;47.60;26.63;;;-1.30;99.90;;;;;;5071835;28;20044;-79
2024/02/22 09:00:01;;;;;;;55.45;25.45;;;-1.40;99.90;;;;;;5072134;28;20067;-79
2024/02/22 09:02:27;;;;;;;52.20;26.48;;;-1.50;99.90;;;;;;5071953;28;20023;-81
2024/02/22 09:04:55;;;;;;;55.22;29.00;;;-1.60;99.90;;;;;;5072370;28;20029;-80
2024/02/22 09:07:21;;;;;;;58.10;29.95;;;-1.50;99.90;;;;;;5072556;28;20032;-78
2024/02/22 09:09:48;;;;;;;48.80;28.25;;;-1.50;99.90;;;;;;5054962;28;20384;-79
2024/02/22 09:12:14;;;;;;;61.15;31.05;;;-1.40;99.90;;;;;;5057174;28;20525;-79
2024/02/22 09:14:40;;;;;;;54.97;29.90;;;-1.40;99.90;;;;;;5059395;28;20033;-79
2024/02/22 09:17:07;;;;;;;50.20;28.60;;;-1.30;99.90;;;;;;5059868;28;20040;-80
2024/02/22 09:19:33;;;;;;;60.47;30.02;;;-1.20;99.90;;;;;;5076995;28;20482;-79
2024/02/22 09:22:02;;;;;;;56.10;29.48;;;-1.10;99.90;;;;;;5076455;28;20039;-81
2024/02/22 09:24:29;;;;;;;52.60;29.00;;;-1.20;99.90;;;;;;5076041;28;20017;-78
2024/02/22 09:26:56;;;;;;;60.58;29.85;;;-1.10;99.90;;;;;;5076511;28;20066;-80
2024/02/22 09:29:22;;;;;;;51.60;28.98;;;-0.90;99.90;;;;;;5057355;28;20060;-79
2024/02/22 09:31:48;;;;;;;46.70;28.42;;;-0.90;99.90;;;;;;5076175;28;20036;-80
2024/02/22 09:34:14;;;;;;;64.40;29.67;;;-1.00;99.90;;;;;;5077060;28;20085;-80
2024/02/22 09:36:40;;;;;;;51.75;23.48;;;-1.00;99.90;;;;;;5076000;28;20059;-81
2024/02/22 09:39:07;;;;;;;59.57;30.37;;;-1.10;99.90;;;;;;5075231;28;20028;-80
2024/02/22 09:41:33;;;;;;;48.33;27.55;;;-1.20;99.90;;;;;;5057250;28;20128;-80
2024/02/22 09:43:59;;;;;;;53.37;30.13;;;-1.20;99.90;;;;;;5075062;28;20017;-79
2024/02/22 09:46:26;;;;;;;54.95;25.52;;;-1.10;99.90;;;;;;5057391;28;20024;-79
2024/02/22 09:48:57;;;;;;;58.87;26.67;;;-1.10;99.90;;;;;;5075301;28;20547;-79
2024/02/22 09:51:23;;;;;;;51.30;29.13;;;-1.00;99.90;;;;;;5077957;28;20405;-79
2024/02/22 09:53:50;;;;;;;52.40;27.60;;;-1.00;99.90;;;;;;5058122;28;20013;-80
2024/02/22 09:56:16;;;;;;;52.85;29.23;;;-1.00;99.90;;;;;;5057239;28;20174;-80
2024/02/22 09:58:47;;;;;;;60.67;30.88;;;-1.00;99.90;;;;;;5075114;28;20453;-79
2024/02/22 10:01:13;;;;;;;60.80;29.13;;;-0.90;99.90;;;;;;5074908;28;20014;-81
2024/02/22 10:03:40;;;;;;;49.63;26.63;;;-0.70;99.90;;;;;;5074896;28;20051;-81
2024/02/22 10:06:27;;;;;;;49.03;25.97;;;-0.60;99.90;;;;;;5075534;28;20020;-80
2024/02/22 10:08:58;;;;;;;50.78;27.27;;;-0.70;99.70;;;;;;5074669;28;20013;-80
2024/02/22 10:11:24;;;;;;;53.70;28.73;;;-0.80;99.50;;;;;;5074518;28;20068;-79
2024/02/22 10:14:00;;;;;;;49.67;26.98;;;-0.80;99.60;;;;;;5074662;28;20110;-79
2024/02/22 10:16:27;;;;;;;48.20;26.38;;;-0.70;99.80;;;;;;5075061;28;20056;-79
2024/02/22 10:18:59;;;;;;;50.80;28.52;;;-0.60;99.90;;;;;;5056514;28;20040;-81
2024/02/22 10:21:28;;;;;;;48.70;27.23;;;-0.60;99.70;;;;;;5075010;28;20021;-80
2024/02/22 10:23:55;;;;;;;56.90;30.23;;;-0.60;99.50;;;;;;5077053;28;20114;-79
2024/02/22 10:26:21;;;;;;;;;;;-0.60;99.70;;;;;;5079480;28;20021;-80
2024/02/22 10:29:00;;;;;;;49.60;24.05;;;-0.60;99.70;;;;;;5075180;28;19904;-79
2024/02/22 10:31:26;;;;;;;52.55;26.38;;;-0.60;99.50;;;;;;5074580;28;20397;-81
2024/02/22 10:33:54;;;;;;;51.88;27.15;;;-0.60;99.60;;;;;;5076785;28;20021;-80
2024/02/22 10:36:21;;;;;;;54.13;29.45;;;-0.60;99.40;;;;;;5055561;28;20049;-80
2024/02/22 10:38:47;;;;;;;;;;;-0.60;99.60;;;;;;5061461;28;20017;-79
2024/02/22 10:41:17;;;;;;;49.77;26.33;;;-0.60;99.30;;;;;;5046833;28;19962;-80
2024/02/22 10:43:44;;;;;;;54.70;29.27;;;-0.70;99.30;;;;;;5073015;28;20363;-79
2024/02/22 10:46:12;;;;;;;44.92;25.08;;;-0.70;99.50;;;;;;5074351;28;20021;-79
2024/02/22 10:48:51;;;;;;;44.22;25.80;;;-0.60;99.50;;;;;;5074254;28;20047;-80
2024/02/22 10:51:19;;;;;;;47.40;27.60;;;-0.70;99.40;;;;;;5074207;28;20033;-79
2024/02/22 10:53:52;;;;;;;40.80;25.38;;;-0.80;99.30;;;;;;5074697;28;20493;-80
2024/02/22 10:56:30;;;;;;;49.05;28.05;;;-0.80;99.50;;;;;;5057227;28;20035;-81
2024/02/22 10:58:59;;;;;;;49.08;28.40;;;-0.80;99.60;;;;;;5075210;28;20386;-81
2024/02/22 11:01:26;;;;;;;55.47;31.13;;;-0.80;99.80;;;;;;5074398;28;20020;-80
2024/02/22 11:03:54;;;;;;;44.75;27.25;;;-0.60;99.80;;;;;;5073747;28;20414;-79
2024/02/22 11:06:21;;;;;;;45.13;28.42;;;-0.40;99.70;;;;;;5055797;28;20028;-79
2024/02/22 11:08:58;;;;;;;48.38;25.35;;;-0.40;99.40;;;;;;5074320;28;20058;-80
2024/02/22 11:11:25;;;;;;;;;;;-0.40;99.40;;;;;;5074879;28;20481;-80
2024/02/22 11:14:02;;;;;;;51.80;28.05;;;-0.60;99.30;;;;;;5055443;28;19908;-80
2024/02/22 11:16:35;;;;;;;41.13;24.42;;;-0.60;99.40;;;;;;5073506;28;20055;-79
2024/02/22 11:19:16;;;;;;;53.72;28.77;;;-0.70;99.50;;;;;;5055262;28;20032;-80
2024/02/22 11:21:43;;;;;;;52.08;26.90;;;-0.60;99.70;;;;;;5074226;28;20020;-78
2024/02/22 11:24:26;;;;;;;53.90;29.98;;;-0.50;99.60;;;;;;5075569;28;20023;-79
2024/02/22 11:26:55;;;;;;;52.03;28.70;;;-0.50;99.50;;;;;;5055951;28;20034;-79
2024/02/22 11:29:32;;;;;;;45.22;27.15;;;-0.50;99.40;;;;;;5073165;28;20021;-80
2024/02/22 11:32:05;;;;;;;50.20;27.55;;;-0.50;99.40;;;;;;5073146;28;20079;-79
2024/02/22 11:34:31;;;;;;;57.78;29.20;;;-0.50;99.40;;;;;;5072366;28;20039;-79
2024/02/22 11:37:17;;;;;;;50.30;28.70;;;-0.40;99.30;;;;;;5072965;28;20025;-80
2024/02/22 11:40:01;;;;;;;47.05;26.90;;;-0.50;99.20;;;;;;5054872;28;20029;-80
2024/02/22 11:42:28;;;;;;;46.15;26.08;;;-0.50;99.20;;;;;;5059791;28;20031;-80
2024/02/22 11:44:54;;;;;;;;;;;-0.50;99.10;;;;;;5055401;28;20381;-81
2024/02/22 11:47:20;;;;;;;46.25;26.98;;;-0.60;99.30;;;;;;5073132;28;19998;-79
2024/02/22 11:49:46;;;;;;;49.75;27.75;;;-0.50;99.40;;;;;;5055194;28;20048;-79
2024/02/22 11:52:15;;;;;;;58.88;30.40;;;-0.40;99.40;;;;;;5072722;28;20028;-80
2024/02/22 11:54:44;;;;;;;47.40;25.77;;;-0.40;99.20;;;;;;5054634;28;20139;-79
2024/02/22 11:57:10;;;;;;;42.78;23.90;;;-0.40;99.10;;;;;;5073377;28;20107;-79
2024/02/22 11:59:36;;;;;;;45.15;24.85;;;-0.50;99.00;;;;;;5055422;28;20124;-80
2024/02/22 12:02:03;;;;;;;46.47;28.35;;;-0.70;99.00;;;;;;5073692;28;20024;-79
2024/02/22 12:04:32;;;;;;;46.17;25.50;;;-0.70;99.30;;;;;;5077940;28;20419;-79
2024/02/22 12:07:01;;;;;;;38.88;21.42;;;-0.60;99.40;;;;;;5072866;28;20039;-80
2024/02/22 12:09:28;;;;;;;46.10;27.42;;;-0.50;99.10;;;;;;5058769;28;20020;-80
2024/02/22 12:11:54;;;;;;;45.03;26.88;;;-0.70;99.10;;;;;;5073862;28;20077;-79
2024/02/22 12:14:20;;;;;;;45.58;24.38;;;-0.60;99.40;;;;;;5072914;28;20107;-80
2024/02/22 12:16:46;;;;;;;43.17;24.67;;;-0.60;99.30;;;;;;5072395;28;20056;-80
2024/02/22 12:19:18;;;;;;;47.17;27.90;;;-0.50;99.30;;;;;;5072127;28;20027;-80
2024/02/22 12:21:48;;;;;;;50.10;26.40;;;-0.50;99.40;;;;;;5072038;28;20039;-79
2024/02/22 12:24:14;;;;;;;41.42;23.83;;;-0.40;99.70;;;;;;5072395;28;20424;-79
2024/02/22 12:26:40;;;;;;;39.78;25.42;;;-0.30;99.20;;;;;;5072612;28;20111;-78
2024/02/22 12:29:07;;;;;;;46.42;25.15;;;-0.40;99.00;;;;;;5072625;28;20358;-78